Time;durP1;ratioP1;P1;durP2;ratioP2;P2;SDS_P1;SDS_P2;PMS_P1;PMS_P2;Temp;Humidity;BMP_temperature;BMP_pressure;BME280_temperature;BME280_humidity;BME280_pressure;Samples;Min_cycle;Max_cycle;Signal;HPM_P1;HPM_P2
2021/11/03 00:01:50;;;;;;;16.38;11.02;;;5.40;99.90;;;;;;5035602;28;20018;-78
2021/11/03 00:04:16;;;;;;;16.40;10.52;;;5.30;99.90;;;;;;5035742;28;20466;-79
2021/11/03 00:06:43;;;;;;;16.90;12.57;;;5.30;99.90;;;;;;5035665;28;20060;-77
2021/11/03 00:09:09;;;;;;;13.60;10.55;;;5.30;99.90;;;;;;5034676;28;20021;-79
2021/11/03 00:11:36;;;;;;;18.58;11.90;;;5.30;99.90;;;;;;5036230;28;20033;-78
2021/11/03 00:14:02;;;;;;;15.48;11.63;;;5.20;99.90;;;;;;5035772;28;20033;-78
2021/11/03 00:16:28;;;;;;;13.60;10.80;;;5.20;99.90;;;;;;5035254;28;20041;-78
2021/11/03 00:18:54;;;;;;;19.88;11.48;;;5.20;99.90;;;;;;5034876;28;20489;-79
2021/11/03 00:21:19;;;;;;;16.83;10.95;;;5.20;99.90;;;;;;5034568;28;20454;-78
2021/11/03 00:23:45;;;;;;;15.32;10.93;;;5.20;99.90;;;;;;5022911;28;20018;-77
2021/11/03 00:26:11;;;;;;;15.73;10.98;;;5.20;99.90;;;;;;5032436;28;20470;-78
2021/11/03 00:28:36;;;;;;;16.52;12.32;;;5.20;99.90;;;;;;5034718;28;20030;-77
2021/11/03 00:31:02;;;;;;;11.98;10.68;;;5.20;99.90;;;;;;5035786;28;20026;-78
2021/11/03 00:33:31;;;;;;;12.52;10.23;;;5.20;99.90;;;;;;5035362;28;20484;-78
2021/11/03 00:36:00;;;;;;;17.75;11.48;;;5.10;99.90;;;;;;5034653;28;20490;-78
2021/11/03 00:38:26;;;;;;;13.00;10.15;;;5.10;99.90;;;;;;5035390;28;20042;-78
2021/11/03 00:40:52;;;;;;;15.73;10.35;;;5.10;99.90;;;;;;5035441;28;20112;-77
2021/11/03 00:43:19;;;;;;;15.70;11.77;;;5.10;99.90;;;;;;5033013;28;20056;-77
2021/11/03 00:45:45;;;;;;;18.27;11.48;;;5.10;99.90;;;;;;5029356;28;20034;-78
2021/11/03 00:48:11;;;;;;;16.55;10.70;;;5.10;99.90;;;;;;5027539;28;20033;-77
2021/11/03 00:50:37;;;;;;;17.65;10.68;;;5.00;99.90;;;;;;5034117;28;20383;-78
2021/11/03 00:53:03;;;;;;;12.25;10.55;;;5.00;99.90;;;;;;5036101;28;20025;-77
2021/11/03 00:55:28;;;;;;;15.25;10.02;;;5.00;99.90;;;;;;5035937;28;20120;-78
2021/11/03 00:57:54;;;;;;;14.60;10.48;;;5.00;99.90;;;;;;5034245;28;20112;-78
2021/11/03 01:00:25;;;;;;;13.32;9.68;;;5.00;99.90;;;;;;5033898;28;20041;-78
2021/11/03 01:02:51;;;;;;;17.15;10.82;;;5.00;99.90;;;;;;5034506;28;20025;-80
2021/11/03 01:05:20;;;;;;;11.73;9.70;;;5.00;99.90;;;;;;5033641;28;20025;-78
2021/11/03 01:07:46;;;;;;;15.50;10.82;;;5.00;99.90;;;;;;5034587;28;20017;-79
2021/11/03 01:10:12;;;;;;;12.93;9.82;;;4.90;99.90;;;;;;5033690;28;20466;-78
2021/11/03 01:12:39;;;;;;;13.90;10.35;;;4.90;99.90;;;;;;5032493;28;20453;-78
2021/11/03 01:15:09;;;;;;;12.15;9.65;;;4.80;99.90;;;;;;5033789;28;20104;-78
2021/11/03 01:17:35;;;;;;;11.70;9.88;;;4.80;99.90;;;;;;5033195;28;20044;-78
2021/11/03 01:20:01;;;;;;;15.82;11.57;;;4.80;99.90;;;;;;5033338;28;20477;-79
2021/11/03 01:22:26;;;;;;;12.65;10.43;;;4.80;99.90;;;;;;5033912;28;20022;-77
2021/11/03 01:24:52;;;;;;;11.23;9.27;;;4.80;99.90;;;;;;5034291;28;20024;-77
2021/11/03 01:27:17;;;;;;;16.75;10.55;;;4.70;99.90;;;;;;5033235;28;20069;-79
2021/11/03 01:29:43;;;;;;;16.10;11.85;;;4.80;99.90;;;;;;5029853;28;20029;-79
2021/11/03 01:32:08;;;;;;;12.35;10.65;;;4.70;99.90;;;;;;5023555;28;20040;-78
2021/11/03 01:34:34;;;;;;;18.15;12.07;;;4.80;99.90;;;;;;5033270;28;20083;-77
2021/11/03 01:37:00;;;;;;;16.10;11.60;;;4.70;99.90;;;;;;5030153;28;20029;-78
2021/11/03 01:39:25;;;;;;;17.83;12.30;;;4.70;99.90;;;;;;5032535;28;20044;-78
2021/11/03 01:41:51;;;;;;;15.73;11.23;;;4.80;99.90;;;;;;5033423;28;20541;-78
2021/11/03 01:44:18;;;;;;;17.33;12.23;;;4.80;99.90;;;;;;5033296;28;20116;-79
2021/11/03 01:47:34;;;;;;;43.83;11.73;;;4.70;99.90;;;;;;5032063;28;20133;-78
2021/11/03 01:50:01;;;;;;;25.10;11.88;;;4.80;99.90;;;;;;4999424;28;20397;-79
2021/11/03 01:52:27;;;;;;;21.50;11.73;;;4.80;99.90;;;;;;5018857;28;20029;-78
2021/11/03 01:54:56;;;;;;;20.88;12.48;;;4.70;99.90;;;;;;5032334;28;20028;-78
2021/11/03 01:57:31;;;;;;;21.88;11.50;;;4.80;99.90;;;;;;5032633;28;20029;-78
2021/11/03 02:00:08;;;;;;;15.45;10.50;;;4.80;99.90;;;;;;5033282;28;20033;-77
2021/11/03 02:02:34;;;;;;;37.15;12.10;;;4.70;99.90;;;;;;5033133;28;20018;-77
2021/11/03 02:05:00;;;;;;;33.60;11.93;;;4.60;99.90;;;;;;5022576;28;20036;-78
2021/11/03 02:07:27;;;;;;;14.45;10.98;;;4.60;99.90;;;;;;5029407;28;20056;-77
2021/11/03 02:09:54;;;;;;;19.17;10.63;;;4.60;99.90;;;;;;5032862;28;20092;-79
2021/11/03 02:12:25;;;;;;;14.95;10.85;;;4.60;99.90;;;;;;5033142;28;20025;-77
2021/11/03 02:14:53;;;;;;;64.80;12.45;;;4.60;99.90;;;;;;5032344;28;20029;-77
2021/11/03 02:17:20;;;;;;;22.60;11.15;;;4.60;99.90;;;;;;5035966;28;20025;-77
2021/11/03 02:19:46;;;;;;;55.20;12.55;;;4.60;99.90;;;;;;5032057;28;20033;-78
2021/11/03 02:22:40;;;;;;;13.95;10.95;;;4.60;99.90;;;;;;5032765;28;20021;-78
2021/11/03 02:25:12;;;;;;;28.63;10.85;;;4.60;99.90;;;;;;5032767;28;20371;-78
2021/11/03 02:27:42;;;;;;;25.08;11.52;;;4.70;99.90;;;;;;5032199;28;20104;-78
2021/11/03 02:30:11;;;;;;;47.28;12.27;;;4.70;99.90;;;;;;5032252;28;20037;-79
2021/11/03 02:32:40;;;;;;;30.05;11.38;;;4.70;99.90;;;;;;5034228;28;20473;-77
2021/11/03 02:35:06;;;;;;;21.73;11.20;;;4.70;99.90;;;;;;5031427;28;20057;-79
2021/11/03 02:37:32;;;;;;;106.90;13.65;;;4.70;99.90;;;;;;5032149;28;20025;-78
2021/11/03 02:40:10;;;;;;;41.33;12.48;;;4.70;99.90;;;;;;5032624;28;20049;-78
2021/11/03 02:42:40;;;;;;;24.45;10.95;;;4.80;99.90;;;;;;5031660;28;20053;-78
2021/11/03 02:45:11;;;;;;;21.40;10.68;;;4.70;99.90;;;;;;5032523;28;20044;-78
2021/11/03 02:47:37;;;;;;;20.60;10.23;;;4.70;99.90;;;;;;5032569;28;20033;-78
2021/11/03 02:50:10;;;;;;;13.57;9.63;;;4.60;99.90;;;;;;5031166;28;20113;-77
2021/11/03 02:52:36;;;;;;;27.23;10.15;;;4.50;99.90;;;;;;5031804;28;20025;-77
2021/11/03 02:55:04;;;;;;;9.98;8.82;;;4.40;99.90;;;;;;5032181;28;20028;-78
2021/11/03 02:57:30;;;;;;;11.02;9.98;;;4.40;99.90;;;;;;5031576;28;20067;-77
2021/11/03 02:59:55;;;;;;;10.52;9.45;;;4.40;99.90;;;;;;5032345;28;20033;-77
2021/11/03 03:02:23;;;;;;;9.70;8.70;;;4.30;99.90;;;;;;5032299;28;20030;-78
2021/11/03 03:04:54;;;;;;;10.45;9.43;;;4.20;99.90;;;;;;5033033;28;20025;-78
2021/11/03 03:07:20;;;;;;;12.85;9.63;;;4.20;99.90;;;;;;5038400;28;20100;-77
2021/11/03 03:09:46;;;;;;;11.48;9.20;;;4.10;99.90;;;;;;5039399;28;20041;-79
2021/11/03 03:12:15;;;;;;;9.05;8.10;;;4.10;99.90;;;;;;5038178;28;20021;-80
2021/11/03 03:14:43;;;;;;;10.32;9.18;;;4.00;99.90;;;;;;5038614;28;20079;-78
2021/11/03 03:17:10;;;;;;;10.27;8.90;;;4.00;99.90;;;;;;5039253;28;20099;-78
2021/11/03 03:19:37;;;;;;;13.35;9.38;;;3.90;99.90;;;;;;5037701;28;20087;-77
2021/11/03 03:22:03;;;;;;;10.30;8.95;;;3.90;99.90;;;;;;5038937;28;20126;-77
2021/11/03 03:24:29;;;;;;;11.60;9.27;;;3.90;99.90;;;;;;5037778;28;20022;-77
2021/11/03 03:26:54;;;;;;;11.52;9.18;;;3.90;99.90;;;;;;5038245;28;20018;-80
2021/11/03 03:29:20;;;;;;;15.65;9.98;;;3.90;99.90;;;;;;5038374;28;20040;-77
2021/11/03 03:31:46;;;;;;;11.35;9.60;;;3.90;99.90;;;;;;5038652;28;20484;-79
2021/11/03 03:34:18;;;;;;;10.57;9.60;;;3.90;99.90;;;;;;5038802;28;20060;-77
2021/11/03 03:36:45;;;;;;;13.57;9.85;;;3.90;99.90;;;;;;5038508;28;20196;-77
2021/11/03 03:39:13;;;;;;;10.98;9.80;;;3.90;99.90;;;;;;5037858;28;20041;-79
2021/11/03 03:41:40;;;;;;;9.68;8.77;;;3.90;99.90;;;;;;5038507;28;20100;-77
2021/11/03 03:44:06;;;;;;;12.60;9.43;;;3.90;99.90;;;;;;5039712;28;20083;-77
2021/11/03 03:46:32;;;;;;;13.43;9.60;;;3.80;99.90;;;;;;5037358;28;20113;-78
2021/11/03 03:48:58;;;;;;;9.68;8.75;;;3.80;99.90;;;;;;5038397;28;20112;-78
2021/11/03 03:51:24;;;;;;;11.25;8.73;;;3.80;99.90;;;;;;5037818;28;20025;-77
2021/11/03 03:53:50;;;;;;;10.10;9.20;;;3.70;99.90;;;;;;5037637;28;20022;-79
2021/11/03 03:56:17;;;;;;;10.20;9.20;;;3.70;99.90;;;;;;5038014;28;20462;-77
2021/11/03 03:58:44;;;;;;;15.30;9.48;;;3.70;99.90;;;;;;5038166;28;20025;-77
2021/11/03 04:01:12;;;;;;;9.35;8.38;;;3.70;99.90;;;;;;5038374;28;20032;-77
2021/11/03 04:03:38;;;;;;;15.05;7.75;;;3.70;99.90;;;;;;5038233;28;20021;-78
2021/11/03 04:06:04;;;;;;;20.55;8.75;;;3.70;99.90;;;;;;5038805;28;20089;-78
2021/11/03 04:08:30;;;;;;;13.55;8.55;;;3.70;99.90;;;;;;5037258;28;20474;-78
2021/11/03 04:10:56;;;;;;;21.55;8.90;;;3.80;99.90;;;;;;5038119;28;20431;-78
2021/11/03 04:13:24;;;;;;;11.25;9.38;;;3.80;99.90;;;;;;5038328;28;20470;-78
2021/11/03 04:15:50;;;;;;;30.92;10.50;;;3.80;99.90;;;;;;5037613;28;20032;-77
2021/11/03 04:18:15;;;;;;;24.13;10.52;;;3.90;99.90;;;;;;5034685;28;20018;-77
2021/11/03 04:20:41;;;;;;;38.30;11.52;;;3.80;99.90;;;;;;5033812;28;20099;-78
2021/11/03 04:23:07;;;;;;;24.88;12.85;;;3.90;99.90;;;;;;5034713;28;20493;-77
2021/11/03 04:25:33;;;;;;;13.30;11.57;;;3.90;99.90;;;;;;5034507;28;20026;-77
2021/11/03 04:27:58;;;;;;;37.55;12.25;;;4.00;99.90;;;;;;5033839;28;20452;-77
2021/11/03 04:30:24;;;;;;;14.52;11.65;;;4.10;99.90;;;;;;5034275;28;20032;-77
2021/11/03 04:32:50;;;;;;;36.08;12.98;;;4.10;99.90;;;;;;5034723;28;20026;-78
2021/11/03 04:35:16;;;;;;;13.70;11.52;;;4.10;99.90;;;;;;5033463;28;20096;-78
2021/11/03 04:37:42;;;;;;;25.67;12.48;;;4.10;99.90;;;;;;5033871;28;20021;-78
2021/11/03 04:40:11;;;;;;;19.95;12.43;;;4.10;99.90;;;;;;5034352;28;20037;-78
2021/11/03 04:42:37;;;;;;;15.52;11.93;;;4.10;99.90;;;;;;5033121;28;20485;-78
2021/11/03 04:45:05;;;;;;;20.85;12.63;;;4.20;99.90;;;;;;5035091;28;20033;-79
2021/11/03 04:47:30;;;;;;;34.85;13.75;;;4.10;99.90;;;;;;5034424;28;20048;-77
2021/11/03 04:49:58;;;;;;;32.88;13.13;;;4.20;99.90;;;;;;5033293;28;20489;-77
2021/11/03 04:52:33;;;;;;;16.60;12.70;;;4.20;99.90;;;;;;5033761;28;20496;-77
2021/11/03 04:54:59;;;;;;;26.85;14.00;;;4.20;99.90;;;;;;5034293;28;20025;-77
2021/11/03 04:57:25;;;;;;;17.20;13.75;;;4.20;99.90;;;;;;5033427;28;20057;-78
2021/11/03 04:59:51;;;;;;;27.70;15.73;;;4.30;99.90;;;;;;5034272;28;20100;-78
2021/11/03 05:02:17;;;;;;;60.63;17.23;;;4.30;99.90;;;;;;5034009;28;20025;-77
2021/11/03 05:04:43;;;;;;;43.95;15.48;;;4.30;99.90;;;;;;5033225;28;20109;-77
2021/11/03 05:07:11;;;;;;;21.67;14.52;;;4.30;99.90;;;;;;5034323;28;20018;-78
2021/11/03 05:09:37;;;;;;;23.38;15.48;;;4.30;99.90;;;;;;5033955;28;20030;-77
2021/11/03 05:12:03;;;;;;;20.30;15.25;;;4.40;99.90;;;;;;5033654;28;20063;-78
2021/11/03 05:14:29;;;;;;;23.70;15.88;;;4.40;99.90;;;;;;5033554;28;20029;-77
2021/11/03 05:16:55;;;;;;;22.95;16.63;;;4.40;99.90;;;;;;5033198;28;20028;-77
2021/11/03 05:19:27;;;;;;;21.77;15.90;;;4.40;99.90;;;;;;5034353;28;20114;-79
2021/11/03 05:21:54;;;;;;;20.50;15.10;;;4.40;99.90;;;;;;5033868;28;20180;-78
2021/11/03 05:24:20;;;;;;;22.85;16.50;;;4.40;99.90;;;;;;5032766;28;20029;-77
2021/11/03 05:26:46;;;;;;;24.55;16.35;;;4.50;99.90;;;;;;5034149;28;20026;-77
2021/11/03 05:29:12;;;;;;;31.13;17.17;;;4.40;99.90;;;;;;5033309;28;20021;-78
2021/11/03 05:31:38;;;;;;;18.90;14.32;;;4.40;99.90;;;;;;5033303;28;20029;-76
2021/11/03 05:34:04;;;;;;;23.08;16.50;;;4.40;99.90;;;;;;5035460;28;20051;-77
2021/11/03 05:36:30;;;;;;;21.42;15.60;;;4.40;99.90;;;;;;5033390;28;20492;-78
2021/11/03 05:39:00;;;;;;;26.92;17.52;;;4.30;99.90;;;;;;5032812;28;20033;-78
2021/11/03 05:41:26;;;;;;;25.55;17.42;;;4.40;99.90;;;;;;5032537;28;20026;-78
2021/11/03 05:43:52;;;;;;;22.75;16.73;;;4.50;99.90;;;;;;5033037;28;20033;-77
2021/11/03 05:46:23;;;;;;;22.20;15.73;;;4.40;99.90;;;;;;5032510;28;20025;-77
2021/11/03 05:48:50;;;;;;;21.52;14.90;;;4.40;99.90;;;;;;5033435;28;20018;-80
2021/11/03 05:51:16;;;;;;;23.70;15.73;;;4.40;99.90;;;;;;5032096;28;20034;-77
2021/11/03 05:53:42;;;;;;;19.90;14.88;;;4.40;99.90;;;;;;5032285;28;20018;-76
2021/11/03 05:56:09;;;;;;;24.83;16.65;;;4.50;99.90;;;;;;5032231;28;20071;-76
2021/11/03 05:58:35;;;;;;;25.17;16.45;;;4.40;99.90;;;;;;5032465;28;20029;-79
2021/11/03 06:01:04;;;;;;;25.23;16.27;;;4.40;99.90;;;;;;5032358;28;20033;-79
2021/11/03 06:03:30;;;;;;;24.48;16.50;;;4.40;99.90;;;;;;5032907;28;20017;-75
2021/11/03 06:05:55;;;;;;;21.17;14.88;;;5.20;99.90;;;;;;5032974;28;20025;-78
2021/11/03 06:08:21;;;;;;;22.17;15.15;;;4.40;99.90;;;;;;5031269;28;20108;-77
2021/11/03 06:10:52;;;;;;;18.80;14.93;;;4.40;99.90;;;;;;5032841;28;20026;-78
2021/11/03 06:13:19;;;;;;;21.90;14.88;;;4.40;99.90;;;;;;5031580;28;20083;-77
2021/11/03 06:15:45;;;;;;;22.08;15.15;;;4.30;99.90;;;;;;5021839;28;20101;-78
2021/11/03 06:18:11;;;;;;;22.42;15.80;;;4.30;99.90;;;;;;5031608;28;20442;-76
2021/11/03 06:20:37;;;;;;;21.17;14.82;;;4.30;99.90;;;;;;5030676;28;20120;-78
2021/11/03 06:23:03;;;;;;;21.63;15.23;;;4.20;99.90;;;;;;5032676;28;20072;-78
2021/11/03 06:25:29;;;;;;;24.90;16.85;;;4.20;99.90;;;;;;5034590;28;20037;-79
2021/11/03 06:27:56;;;;;;;29.20;17.77;;;4.10;99.90;;;;;;5035273;28;20032;-77
2021/11/03 06:30:29;;;;;;;33.03;17.48;;;4.10;99.90;;;;;;5030525;28;20067;-79
2021/11/03 06:32:55;;;;;;;27.83;16.17;;;4.10;99.90;;;;;;5031282;28;20033;-79
2021/11/03 06:35:22;;;;;;;21.23;15.80;;;4.10;99.90;;;;;;5030273;28;20041;-79
2021/11/03 06:37:47;;;;;;;22.75;14.80;;;4.10;99.90;;;;;;5031051;28;20037;-79
2021/11/03 06:40:16;;;;;;;24.65;15.60;;;4.00;99.90;;;;;;5030396;28;20389;-79
2021/11/03 06:42:42;;;;;;;23.92;16.02;;;4.00;99.90;;;;;;5029713;28;20079;-78
2021/11/03 06:45:10;;;;;;;25.80;15.52;;;3.90;99.90;;;;;;5031322;28;20029;-78
2021/11/03 06:47:43;;;;;;;23.05;14.93;;;3.90;99.90;;;;;;5030537;28;20029;-79
2021/11/03 06:50:12;;;;;;;19.42;13.82;;;3.90;99.90;;;;;;5030001;28;20033;-79
2021/11/03 06:52:38;;;;;;;62.22;12.48;;;3.90;99.90;;;;;;5030860;28;20021;-78
2021/11/03 06:55:05;;;;;;;23.45;11.57;;;3.80;99.90;;;;;;5030993;28;20474;-78
2021/11/03 06:57:31;;;;;;;13.43;10.88;;;3.80;99.90;;;;;;5029933;28;20045;-77
2021/11/03 06:59:58;;;;;;;20.52;12.60;;;3.70;99.90;;;;;;5030935;28;20478;-79
2021/11/03 07:02:24;;;;;;;45.72;13.80;;;3.70;99.90;;;;;;5029876;28;20126;-77
2021/11/03 07:04:50;;;;;;;23.17;11.98;;;3.70;99.90;;;;;;5031197;28;20148;-78
2021/11/03 07:07:15;;;;;;;41.25;12.60;;;3.60;99.90;;;;;;5028920;28;20029;-77
2021/11/03 07:09:41;;;;;;;30.02;13.50;;;3.60;99.90;;;;;;5030738;28;20548;-77
2021/11/03 07:12:07;;;;;;;16.90;12.93;;;3.70;99.90;;;;;;5031423;28;20017;-78
2021/11/03 07:14:32;;;;;;;22.27;13.63;;;3.60;99.90;;;;;;5031054;28;20049;-77
2021/11/03 07:16:58;;;;;;;18.85;13.82;;;4.50;99.90;;;;;;5030670;28;20474;-79
2021/11/03 07:19:23;;;;;;;22.85;13.88;;;3.60;99.90;;;;;;5031348;28;20080;-78
2021/11/03 07:21:49;;;;;;;19.77;13.30;;;3.70;99.90;;;;;;5028326;28;20088;-80
2021/11/03 07:24:15;;;;;;;24.05;13.75;;;3.70;99.90;;;;;;5029517;28;20424;-78
2021/11/03 07:26:44;;;;;;;31.85;14.98;;;3.70;99.90;;;;;;5030661;28;20033;-78
2021/11/03 07:29:11;;;;;;;30.70;15.07;;;3.80;99.90;;;;;;5030481;28;20033;-79
2021/11/03 07:31:37;;;;;;;25.85;13.55;;;3.90;99.90;;;;;;5029284;28;20021;-77
2021/11/03 07:34:03;;;;;;;20.90;13.85;;;3.90;99.90;;;;;;5031092;28;20413;-77
2021/11/03 07:36:30;;;;;;;57.47;15.20;;;3.90;99.90;;;;;;5030471;28;20104;-77
2021/11/03 07:38:56;;;;;;;23.40;14.82;;;3.90;99.90;;;;;;5027306;28;20037;-77
2021/11/03 07:41:22;;;;;;;24.70;15.05;;;4.00;99.90;;;;;;5030932;28;20018;-78
2021/11/03 07:43:49;;;;;;;20.75;13.82;;;4.00;99.90;;;;;;5030197;28;20108;-80
2021/11/03 07:46:14;;;;;;;21.75;13.57;;;4.10;99.90;;;;;;5027642;28;20057;-79
2021/11/03 07:48:40;;;;;;;51.15;14.73;;;4.10;99.90;;;;;;5028378;28;20425;-80
2021/11/03 07:51:10;;;;;;;26.15;13.50;;;4.10;99.90;;;;;;5029644;28;20385;-80
2021/11/03 07:53:36;;;;;;;22.50;13.50;;;4.20;99.90;;;;;;5031347;28;20026;-81
2021/11/03 07:56:05;;;;;;;19.50;12.65;;;4.20;99.90;;;;;;5033862;28;20175;-80
2021/11/03 07:58:34;;;;;;;22.98;16.70;;;4.30;99.90;;;;;;5035193;28;20041;-81
2021/11/03 08:01:00;;;;;;;31.17;15.18;;;4.30;99.90;;;;;;5034707;28;20024;-81
2021/11/03 08:03:26;;;;;;;28.40;14.90;;;4.30;99.90;;;;;;5034737;28;20049;-79
2021/11/03 08:05:53;;;;;;;19.08;14.45;;;4.30;99.90;;;;;;5034373;28;20037;-79
2021/11/03 08:08:22;;;;;;;25.20;13.80;;;4.30;99.90;;;;;;5034801;28;20026;-78
2021/11/03 08:10:48;;;;;;;16.47;13.00;;;4.30;99.90;;;;;;5034919;28;20030;-79
2021/11/03 08:13:17;;;;;;;15.60;11.68;;;4.40;99.90;;;;;;5034290;28;20029;-77
2021/11/03 08:15:45;;;;;;;17.35;13.48;;;4.40;99.90;;;;;;5034829;28;20096;-78
2021/11/03 08:18:13;;;;;;;18.95;13.02;;;4.40;99.90;;;;;;5035137;28;20091;-79
2021/11/03 08:20:40;;;;;;;38.70;13.43;;;4.50;99.90;;;;;;5036176;28;20038;-78
2021/11/03 08:23:07;;;;;;;13.30;11.90;;;4.50;99.90;;;;;;5034415;28;20017;-80
2021/11/03 08:25:33;;;;;;;26.58;12.45;;;4.50;99.90;;;;;;5034874;28;20029;-79
2021/11/03 08:27:59;;;;;;;18.23;12.15;;;4.50;99.90;;;;;;5033710;28;20432;-80
2021/11/03 08:30:25;;;;;;;16.98;10.93;;;4.60;99.90;;;;;;5034773;28;20029;-79
2021/11/03 08:32:54;;;;;;;13.60;12.18;;;4.60;99.90;;;;;;5036453;28;20029;-79
2021/11/03 08:35:25;;;;;;;25.30;15.43;;;4.60;99.90;;;;;;5037059;28;20048;-79
2021/11/03 08:37:51;;;;;;;;;;;4.70;99.90;;;;;;5037904;28;20466;-80
2021/11/03 08:40:19;;;;;;;23.40;16.48;;;4.70;99.90;;;;;;5036955;28;19936;-78
2021/11/03 08:42:45;;;;;;;18.48;14.43;;;4.80;99.90;;;;;;5034797;28;20066;-79
2021/11/03 08:45:12;;;;;;;17.42;14.00;;;4.90;99.90;;;;;;5035409;28;20033;-79
2021/11/03 08:47:40;;;;;;;16.23;13.45;;;5.00;99.90;;;;;;5035148;28;20029;-79
2021/11/03 08:50:09;;;;;;;16.02;14.18;;;5.10;99.90;;;;;;5034339;28;20550;-77
2021/11/03 08:52:35;;;;;;;17.92;14.30;;;5.20;99.90;;;;;;5034447;28;20037;-77
2021/11/03 08:55:00;;;;;;;16.77;14.00;;;5.30;99.90;;;;;;5033641;28;20018;-81
2021/11/03 08:57:26;;;;;;;27.88;12.73;;;5.30;99.90;;;;;;5034656;28;20052;-80
2021/11/03 08:59:51;;;;;;;25.10;12.13;;;5.40;99.90;;;;;;5034307;28;20037;-81
2021/11/03 09:02:21;;;;;;;13.48;11.63;;;5.40;99.90;;;;;;5033044;28;20049;-81
2021/11/03 09:04:47;;;;;;;15.48;12.85;;;5.40;99.90;;;;;;5034007;28;20112;-74
2021/11/03 09:07:14;;;;;;;17.80;13.85;;;5.60;99.90;;;;;;5034831;28;20441;-80
2021/11/03 09:09:45;;;;;;;18.63;13.27;;;5.80;99.90;;;;;;5020665;28;20833;-74
2021/11/03 09:12:11;;;;;;;22.95;14.38;;;5.90;99.90;;;;;;5025429;28;20018;-74
2021/11/03 09:14:38;;;;;;;15.23;13.43;;;6.00;99.90;;;;;;5027708;28;20025;-75
2021/11/03 09:17:04;;;;;;;19.52;14.02;;;6.20;99.90;;;;;;5027412;28;20017;-74
2021/11/03 09:19:30;;;;;;;18.35;14.45;;;6.20;99.90;;;;;;5020769;28;20041;-78
2021/11/03 09:21:56;;;;;;;20.33;14.73;;;6.30;99.90;;;;;;5022340;28;20034;-77
2021/11/03 09:24:21;;;;;;;19.13;13.98;;;6.30;99.90;;;;;;5026871;28;20030;-77
2021/11/03 09:26:47;;;;;;;26.33;16.63;;;6.40;99.90;;;;;;5022961;28;20014;-81
2021/11/03 09:29:13;;;;;;;25.38;17.52;;;6.60;99.90;;;;;;5020824;28;20214;-77
2021/11/03 09:31:40;;;;;;;25.17;17.83;;;6.70;99.90;;;;;;5028568;28;20021;-78
2021/11/03 09:34:05;;;;;;;24.60;17.50;;;6.80;99.90;;;;;;5024352;28;20389;-78
2021/11/03 09:36:32;;;;;;;23.27;16.70;;;6.90;99.90;;;;;;5025630;28;20046;-76
2021/11/03 09:38:58;;;;;;;25.02;18.75;;;7.10;99.90;;;;;;5021415;28;20057;-76
2021/11/03 09:41:29;;;;;;;22.73;17.60;;;7.20;99.90;;;;;;5015840;28;20013;-76
2021/11/03 09:43:57;;;;;;;28.17;19.73;;;7.30;99.90;;;;;;5026876;28;20119;-77
2021/11/03 09:46:42;;;;;;;29.17;19.73;;;7.50;99.90;;;;;;5025167;28;20026;-79
2021/11/03 09:49:18;;;;;;;22.58;17.05;;;7.50;99.90;;;;;;5018398;28;20048;-78
2021/11/03 09:51:48;;;;;;;28.05;19.00;;;7.60;99.90;;;;;;5019823;28;20045;-75
2021/11/03 09:54:22;;;;;;;28.77;21.35;;;7.70;99.90;;;;;;5017493;28;20367;-75
2021/11/03 09:56:58;;;;;;;28.63;21.13;;;7.80;99.90;;;;;;5031236;28;20063;-74
2021/11/03 09:59:50;;;;;;;32.58;21.70;;;7.90;99.90;;;;;;5019967;28;20080;-75
2021/11/03 10:02:49;;;;;;;30.73;21.48;;;8.00;99.90;;;;;;5016856;28;20108;-75
2021/11/03 10:05:40;;;;;;;26.33;20.63;;;8.00;99.90;;;;;;4990497;28;20540;-74
2021/11/03 10:08:14;;;;;;;30.27;20.13;;;8.00;99.90;;;;;;5021529;28;20037;-75
2021/11/03 10:10:48;;;;;;;27.55;20.83;;;8.00;99.90;;;;;;5017006;28;20096;-73
2021/11/03 10:13:18;;;;;;;30.10;21.13;;;8.00;99.90;;;;;;5020503;28;20034;-74
2021/11/03 10:16:21;;;;;;;29.27;20.92;;;8.00;99.90;;;;;;5020956;28;20022;-73
2021/11/03 10:19:08;;;;;;;26.77;20.73;;;8.00;99.90;;;;;;5010040;28;20385;-73
2021/11/03 10:21:34;;;;;;;31.70;21.10;;;8.00;99.90;;;;;;5024031;28;20013;-73
2021/11/03 10:24:09;;;;;;;26.35;19.45;;;7.90;99.90;;;;;;5023068;28;20052;-73
2021/11/03 10:26:59;;;;;;;24.75;18.67;;;7.90;99.90;;;;;;5024894;28;20500;-74
2021/11/03 10:29:34;;;;;;;26.25;19.73;;;7.90;99.90;;;;;;5023120;28;20048;-73
2021/11/03 10:32:09;;;;;;;24.42;17.60;;;7.90;99.90;;;;;;5024134;28;20124;-73
2021/11/03 10:34:34;;;;;;;36.58;21.73;;;7.90;99.90;;;;;;5019524;28;20068;-73
2021/11/03 10:37:06;;;;;;;21.73;16.92;;;7.80;99.90;;;;;;5021907;28;20030;-73
2021/11/03 10:39:51;;;;;;;20.83;15.95;;;7.70;99.90;;;;;;5019467;28;20064;-73
2021/11/03 10:42:50;;;;;;;20.77;16.80;;;7.70;99.90;;;;;;5009046;28;20390;-72
2021/11/03 10:45:21;;;;;;;27.92;18.55;;;7.70;99.90;;;;;;5020028;28;20021;-71
2021/11/03 10:48:14;;;;;;;28.23;20.50;;;7.80;99.90;;;;;;5031375;28;20547;-72
2021/11/03 10:51:11;;;;;;;27.50;19.40;;;7.80;99.90;;;;;;5027829;28;20148;-73
2021/11/03 10:53:36;;;;;;;24.67;19.25;;;7.80;99.90;;;;;;5027710;28;20017;-74
2021/11/03 10:56:02;;;;;;;27.95;20.33;;;7.80;99.90;;;;;;5030000;28;20028;-73
2021/11/03 10:58:36;;;;;;;26.52;19.25;;;7.90;99.90;;;;;;5031369;28;20068;-72
2021/11/03 11:01:04;;;;;;;29.58;21.45;;;7.90;99.90;;;;;;5031830;28;20076;-73
2021/11/03 11:03:36;;;;;;;31.58;21.65;;;7.90;99.90;;;;;;5025060;28;20028;-72
2021/11/03 11:06:14;;;;;;;34.05;22.00;;;8.00;99.90;;;;;;5027697;28;20032;-71
2021/11/03 11:09:03;;;;;;;30.05;22.45;;;8.00;99.90;;;;;;5023201;28;20025;-70
2021/11/03 11:11:35;;;;;;;32.80;24.63;;;8.10;99.90;;;;;;4986503;28;20041;-73
2021/11/03 11:14:10;;;;;;;36.28;26.33;;;8.20;99.90;;;;;;5025881;28;20041;-72
2021/11/03 11:16:39;;;;;;;36.65;27.30;;;8.20;99.90;;;;;;5022833;28;20018;-72
2021/11/03 11:19:38;;;;;;;41.90;29.63;;;8.30;99.90;;;;;;5027193;28;20099;-74
2021/11/03 11:22:26;;;;;;;36.58;26.48;;;8.30;99.90;;;;;;5019091;28;20026;-73
2021/11/03 11:25:12;;;;;;;42.78;29.20;;;8.30;99.90;;;;;;5027511;28;20052;-74
2021/11/03 11:27:44;;;;;;;47.15;32.85;;;8.40;99.90;;;;;;5031962;28;20033;-73
2021/11/03 11:30:17;;;;;;;46.13;30.05;;;8.40;99.90;;;;;;5025468;28;20049;-73
2021/11/03 11:32:51;;;;;;;42.17;28.80;;;8.50;99.90;;;;;;5024009;28;20026;-74
2021/11/03 11:35:43;;;;;;;40.10;28.70;;;8.50;99.90;;;;;;5025307;28;20181;-73
2021/11/03 11:38:39;;;;;;;36.42;27.33;;;8.60;99.90;;;;;;5021838;28;20025;-75
2021/11/03 11:41:15;;;;;;;44.80;29.58;;;8.70;99.90;;;;;;5017962;28;20525;-74
2021/11/03 11:43:52;;;;;;;42.15;29.48;;;8.70;99.90;;;;;;5030712;28;20028;-73
2021/11/03 11:46:21;;;;;;;46.72;31.42;;;8.80;99.90;;;;;;5019193;28;20088;-73
2021/11/03 11:49:04;;;;;;;57.63;35.58;;;8.80;99.90;;;;;;5025164;28;20394;-73
2021/11/03 11:51:37;;;;;;;52.65;34.45;;;8.80;99.90;;;;;;5024781;28;20028;-74
2021/11/03 11:54:27;;;;;;;49.25;32.50;;;8.80;99.90;;;;;;5026536;28;20072;-73
2021/11/03 11:57:11;;;;;;;56.28;35.03;;;8.80;99.90;;;;;;5023277;28;20040;-74
2021/11/03 12:00:08;;;;;;;62.85;39.72;;;8.80;99.90;;;;;;5028607;28;20061;-74
2021/11/03 12:02:50;;;;;;;59.28;37.55;;;8.80;99.90;;;;;;5025001;28;20024;-74
2021/11/03 12:05:28;;;;;;;54.92;35.03;;;8.80;99.90;;;;;;5029315;28;20021;-72
2021/11/03 12:08:09;;;;;;;49.33;32.35;;;8.80;99.90;;;;;;5028948;28;20026;-73
2021/11/03 12:10:37;;;;;;;44.08;30.02;;;8.80;99.90;;;;;;5028342;28;20024;-75
2021/11/03 12:13:18;;;;;;;45.80;29.75;;;8.80;99.90;;;;;;5028881;28;20071;-74
2021/11/03 12:15:50;;;;;;;41.92;29.90;;;8.90;99.90;;;;;;5031489;28;20032;-74
2021/11/03 12:18:25;;;;;;;46.15;29.80;;;8.90;99.90;;;;;;5032846;28;20021;-75
2021/11/03 12:21:11;;;;;;;47.90;31.88;;;8.90;99.90;;;;;;5031763;28;20067;-74
2021/11/03 12:24:06;;;;;;;46.33;30.40;;;9.00;99.90;;;;;;5033878;28;20026;-76
2021/11/03 12:26:41;;;;;;;43.15;30.10;;;9.10;99.90;;;;;;5031576;28;20553;-76
2021/11/03 12:29:15;;;;;;;41.70;28.48;;;9.20;99.90;;;;;;5033134;28;20562;-76
2021/11/03 12:31:47;;;;;;;42.03;29.30;;;9.30;99.90;;;;;;5034097;28;20350;-76
2021/11/03 12:34:38;;;;;;;41.67;28.50;;;9.30;99.90;;;;;;5033516;28;20060;-76
2021/11/03 12:37:06;;;;;;;40.20;27.98;;;9.40;99.90;;;;;;5034170;28;20073;-77
2021/11/03 12:39:31;;;;;;;42.42;27.92;;;9.50;99.90;;;;;;5033730;28;20398;-77
2021/11/03 12:42:10;;;;;;;38.97;27.15;;;9.50;99.90;;;;;;5034134;28;20022;-77
2021/11/03 12:44:42;;;;;;;39.72;27.05;;;9.60;99.90;;;;;;5034285;28;20068;-75
2021/11/03 12:47:25;;;;;;;43.03;27.23;;;9.60;99.90;;;;;;5033941;28;20071;-77
2021/11/03 12:50:24;;;;;;;40.72;26.10;;;9.70;99.90;;;;;;5034559;28;20428;-76
2021/11/03 12:53:02;;;;;;;34.78;23.95;;;9.70;99.90;;;;;;5034702;28;20084;-76